createdAt,value
2018-02-02T00:01:11.577Z,94590.30
2018-02-02T00:03:38.955Z,94584.02
2018-02-02T00:06:06.353Z,94572.14
2018-02-02T00:08:33.764Z,94594.48
2018-02-02T00:11:01.169Z,94575.81
2018-02-02T00:13:28.551Z,94573.31
2018-02-02T00:15:55.956Z,94574.66
2018-02-02T00:18:23.317Z,94582.19
2018-02-02T00:20:50.738Z,94578.62
2018-02-02T00:23:18.165Z,94572.25
2018-02-02T00:25:45.537Z,94576.02
2018-02-02T00:28:13.032Z,94567.52
2018-02-02T00:30:40.535Z,94557.41
2018-02-02T00:33:07.988Z,94573.48
2018-02-02T00:35:35.406Z,94571.36
2018-02-02T00:38:02.785Z,94578.09
2018-02-02T00:40:30.146Z,94579.41
2018-02-02T00:42:57.546Z,94564.92
2018-02-02T00:45:25.131Z,94568.29
2018-02-02T00:47:52.542Z,94558.50
2018-02-02T00:50:20.007Z,94563.14
2018-02-02T00:52:47.422Z,94592.66
2018-02-02T00:55:14.822Z,94585.33
2018-02-02T00:57:42.245Z,94602.15
2018-02-02T01:00:09.584Z,94568.36
2018-02-02T01:02:36.950Z,94589.86
2018-02-02T01:05:04.391Z,94562.98
2018-02-02T01:07:31.811Z,94581.20
2018-02-02T01:09:59.178Z,94594.97
2018-02-02T01:12:26.553Z,94596.64
2018-02-02T01:14:53.946Z,94621.86
2018-02-02T01:17:21.359Z,94572.35
2018-02-02T01:19:48.764Z,94611.63
2018-02-02T01:22:16.126Z,94600.31
2018-02-02T01:24:43.525Z,94600.53
2018-02-02T01:27:10.964Z,94620.31
2018-02-02T01:29:38.336Z,94599.59
2018-02-02T01:32:05.760Z,94596.45
2018-02-02T01:34:33.110Z,94571.82
2018-02-02T01:37:00.480Z,94549.70
2018-02-02T01:39:27.881Z,94551.45
2018-02-02T01:41:55.384Z,94563.11
2018-02-02T01:44:22.770Z,94563.67
2018-02-02T01:46:50.218Z,94569.66
2018-02-02T01:49:17.639Z,94564.55
2018-02-02T01:51:45.047Z,94589.26
2018-02-02T01:54:12.476Z,94594.36
2018-02-02T01:56:39.832Z,94581.19
2018-02-02T01:59:07.202Z,94593.58
2018-02-02T02:01:34.599Z,94604.17
2018-02-02T02:04:02.063Z,94551.16
2018-02-02T02:06:29.460Z,94591.73
2018-02-02T02:08:56.876Z,94605.37
2018-02-02T02:11:24.265Z,94594.02
2018-02-02T02:13:51.626Z,94587.61
2018-02-02T02:16:19.030Z,94579.35
2018-02-02T02:18:46.465Z,94617.52
2018-02-02T02:21:13.875Z,94626.67
2018-02-02T02:23:41.404Z,94590.55
2018-02-02T02:26:08.770Z,94601.51
2018-02-02T02:28:36.136Z,94610.03
2018-02-02T02:31:03.524Z,94576.81
2018-02-02T02:33:30.914Z,94627.48
2018-02-02T02:35:58.271Z,94626.31
2018-02-02T02:38:25.771Z,94585.14
2018-02-02T02:40:53.258Z,94605.67
2018-02-02T02:43:20.625Z,94603.67
2018-02-02T02:45:47.994Z,94591.13
2018-02-02T02:48:15.414Z,94592.30
2018-02-02T02:50:42.775Z,94609.54
2018-02-02T02:53:10.167Z,94607.05
2018-02-02T02:55:37.510Z,94583.05
2018-02-02T02:58:04.898Z,94606.66
2018-02-02T03:00:32.300Z,94628.13
2018-02-02T03:02:59.771Z,94609.54
2018-02-02T03:05:27.122Z,94599.09
2018-02-02T03:07:54.498Z,94602.22
2018-02-02T03:10:21.951Z,94602.11
2018-02-02T03:12:49.355Z,94611.50
2018-02-02T03:15:16.735Z,94621.86
2018-02-02T03:17:44.131Z,94604.48
2018-02-02T03:20:11.582Z,94597.55
2018-02-02T03:22:38.925Z,94615.80
2018-02-02T03:25:06.317Z,94613.38
2018-02-02T03:27:33.654Z,94595.38
2018-02-02T03:30:01.045Z,94600.69
2018-02-02T03:32:28.446Z,94585.77
2018-02-02T03:34:55.854Z,94595.95
2018-02-02T03:37:23.243Z,94605.17
2018-02-02T03:39:50.582Z,94585.88
2018-02-02T03:42:17.972Z,94605.05
2018-02-02T03:44:45.327Z,94611.20
2018-02-02T03:47:12.738Z,94612.61
2018-02-02T03:49:40.077Z,94599.20
2018-02-02T03:52:07.453Z,94591.55
2018-02-02T03:54:34.851Z,94612.19
2018-02-02T03:57:02.201Z,94627.46
2018-02-02T03:59:29.621Z,94631.97
2018-02-02T04:01:56.973Z,94612.34
2018-02-02T04:04:24.393Z,94596.33
2018-02-02T04:06:51.758Z,94591.94
2018-02-02T04:09:19.147Z,94600.97
2018-02-02T04:11:46.523Z,94603.23
2018-02-02T04:14:13.867Z,94576.45
2018-02-02T04:16:41.258Z,94587.98
2018-02-02T04:19:08.614Z,94600.77
2018-02-02T04:21:35.955Z,94595.66
2018-02-02T04:24:03.350Z,94576.80
2018-02-02T04:26:30.729Z,94577.75
2018-02-02T04:28:58.118Z,94589.47
2018-02-02T04:31:25.570Z,94588.33
2018-02-02T04:33:52.968Z,94587.52
2018-02-02T04:36:20.379Z,94593.69
2018-02-02T04:38:47.789Z,94601.19
2018-02-02T04:41:15.224Z,94604.34
2018-02-02T04:43:42.698Z,94588.27
2018-02-02T04:46:10.131Z,94611.14
2018-02-02T04:48:37.572Z,94605.32
2018-02-02T04:51:04.965Z,94591.38
2018-02-02T04:53:32.448Z,94595.56
2018-02-02T04:55:59.862Z,94598.06
2018-02-02T04:58:27.336Z,94605.45
2018-02-02T05:00:54.787Z,94579.31
2018-02-02T05:03:22.169Z,94615.57
2018-02-02T05:05:49.551Z,94636.80
2018-02-02T05:08:16.996Z,94647.66
2018-02-02T05:10:44.430Z,94665.56
2018-02-02T05:13:11.827Z,94638.88
2018-02-02T05:15:39.271Z,94664.88
2018-02-02T05:18:06.694Z,94657.83
2018-02-02T05:20:34.117Z,94644.97
2018-02-02T05:23:01.516Z,94647.88
2018-02-02T05:25:28.906Z,94663.11
2018-02-02T05:27:56.381Z,94653.95
2018-02-02T05:30:23.751Z,94654.94
2018-02-02T05:32:51.141Z,94671.45
2018-02-02T05:35:18.560Z,94656.37
2018-02-02T05:37:45.980Z,94666.62
2018-02-02T05:40:13.378Z,94658.41
2018-02-02T05:42:40.814Z,94642.35
2018-02-02T05:45:08.261Z,94657.03
2018-02-02T05:47:35.644Z,94668.02
2018-02-02T05:50:03.085Z,94646.97
2018-02-02T05:52:30.482Z,94623.61
2018-02-02T05:54:58.007Z,94664.61
2018-02-02T05:57:25.407Z,94659.47
2018-02-02T05:59:52.875Z,94664.23
2018-02-02T06:02:20.281Z,94649.20
2018-02-02T06:04:47.689Z,94667.66
2018-02-02T06:07:15.206Z,94636.90
2018-02-02T06:09:42.638Z,94661.41
2018-02-02T06:12:10.070Z,94673.58
2018-02-02T06:14:37.474Z,94672.52
2018-02-02T06:17:04.922Z,94650.14
2018-02-02T06:19:32.308Z,94684.47
2018-02-02T06:22:00.096Z,94683.39
2018-02-02T06:24:27.552Z,94679.17
2018-02-02T06:26:54.977Z,94643.18
2018-02-02T06:29:35.602Z,94644.63
2018-02-02T06:32:03.173Z,94661.03
2018-02-02T06:34:30.817Z,94676.25
2018-02-02T06:36:58.375Z,94679.27
2018-02-02T06:39:26.689Z,94652.78
2018-02-02T06:41:55.264Z,94656.62
2018-02-02T06:44:23.397Z,94663.59
2018-02-02T06:46:51.067Z,94653.67
2018-02-02T06:49:18.752Z,94695.26
2018-02-02T06:51:48.196Z,94684.12
2018-02-02T06:54:16.950Z,94640.64
2018-02-02T06:56:44.557Z,94680.27
2018-02-02T06:59:12.347Z,94685.98
2018-02-02T07:01:42.965Z,94646.52
2018-02-02T07:04:12.545Z,94632.70
2018-02-02T07:06:43.053Z,94630.95
2018-02-02T07:09:19.287Z,94709.41
2018-02-02T07:11:46.990Z,94623.20
2018-02-02T07:14:14.686Z,94613.37
2018-02-02T07:16:42.660Z,94687.23
2018-02-02T07:19:10.302Z,94624.28
2018-02-02T07:21:38.059Z,94609.94
2018-02-02T07:24:05.642Z,94680.11
2018-02-02T07:26:36.520Z,94616.07
2018-02-02T07:29:04.214Z,94612.49
2018-02-02T07:31:32.687Z,94651.53
2018-02-02T07:34:00.365Z,94670.00
2018-02-02T07:36:28.428Z,94669.55
2018-02-02T07:38:56.364Z,94652.25
2018-02-02T07:54:34.747Z,94640.05
2018-02-02T07:57:02.525Z,94630.72
2018-02-02T07:59:30.338Z,94660.16
2018-02-02T08:01:59.559Z,94644.33
2018-02-02T08:04:27.455Z,94620.00
2018-02-02T08:06:54.884Z,94602.01
2018-02-02T08:09:22.328Z,94634.38
2018-02-02T08:11:49.854Z,94583.73
2018-02-02T08:14:17.506Z,94586.55
2018-02-02T08:16:44.974Z,94632.05
2018-02-02T08:19:12.392Z,94617.66
2018-02-02T08:21:39.896Z,94600.67
2018-02-02T08:24:07.266Z,94670.80
2018-02-02T08:26:34.798Z,94676.03
2018-02-02T08:29:02.254Z,94655.30
2018-02-02T08:31:29.897Z,94630.50
2018-02-02T08:33:57.335Z,94659.16
2018-02-02T08:36:24.832Z,94698.78
2018-02-02T08:38:52.292Z,94676.62
2018-02-02T08:41:19.683Z,94661.06
2018-02-02T08:43:47.133Z,94697.07
2018-02-02T08:46:14.542Z,94665.02
2018-02-02T08:48:42.085Z,94654.34
2018-02-02T08:51:09.636Z,94723.65
2018-02-02T08:53:37.127Z,94691.56
2018-02-02T08:56:04.624Z,94690.30
2018-02-02T08:58:32.067Z,94700.27
2018-02-02T09:00:59.667Z,94678.50
2018-02-02T09:03:27.135Z,94680.55
2018-02-02T09:05:54.752Z,94667.77
2018-02-02T09:08:22.298Z,94677.38
2018-02-02T09:10:49.689Z,94639.92
2018-02-02T09:13:17.181Z,94658.80
2018-02-02T09:15:44.709Z,94640.34
2018-02-02T09:18:12.176Z,94672.61
2018-02-02T09:20:39.692Z,94659.82
2018-02-02T09:23:07.244Z,94667.42
2018-02-02T09:25:34.722Z,94652.86
2018-02-02T09:28:02.415Z,94633.50
2018-02-02T09:30:29.929Z,94658.84
2018-02-02T09:32:57.497Z,94641.47
2018-02-02T09:35:24.960Z,94668.63
2018-02-02T09:37:52.358Z,94684.25
2018-02-02T09:40:20.181Z,94685.14
2018-02-02T09:42:47.670Z,94631.98
2018-02-02T09:45:15.203Z,94705.92
2018-02-02T09:47:42.638Z,94677.86
2018-02-02T09:50:10.035Z,94665.93
2018-02-02T09:52:37.490Z,94629.30
2018-02-02T09:55:04.949Z,94664.31
2018-02-02T09:57:32.357Z,94654.58
2018-02-02T09:59:59.839Z,94648.40
2018-02-02T10:02:27.298Z,94648.50
2018-02-02T10:04:54.763Z,94656.91
2018-02-02T10:07:22.167Z,94655.39
2018-02-02T10:09:49.541Z,94643.31
2018-02-02T10:12:16.952Z,94640.78
2018-02-02T10:14:44.386Z,94625.83
2018-02-02T10:17:11.780Z,94611.44
2018-02-02T10:19:39.251Z,94616.77
2018-02-02T10:22:06.642Z,94585.47
2018-02-02T10:24:34.284Z,94601.78
2018-02-02T10:27:01.964Z,94558.03
2018-02-02T10:29:29.388Z,94578.34
2018-02-02T10:31:56.846Z,94557.77
2018-02-02T10:34:24.663Z,94540.16
2018-02-02T10:36:52.164Z,94589.38
2018-02-02T10:39:19.627Z,94565.10
2018-02-02T10:41:47.068Z,94573.03
2018-02-02T10:44:14.500Z,94552.28
2018-02-02T10:46:41.915Z,94573.42
2018-02-02T10:49:09.366Z,94546.80
2018-02-02T10:51:36.814Z,94589.72
2018-02-02T10:54:04.290Z,94551.13
2018-02-02T10:56:31.710Z,94582.53
2018-02-02T10:58:59.188Z,94584.81
2018-02-02T11:01:26.652Z,94570.48
2018-02-02T11:03:54.121Z,94565.78
2018-02-02T11:06:21.623Z,94576.28
2018-02-02T11:08:49.195Z,94570.95
2018-02-02T11:11:16.736Z,94554.77
2018-02-02T11:13:44.171Z,94524.92
2018-02-02T11:16:11.619Z,94596.27
2018-02-02T11:18:39.122Z,94598.89
2018-02-02T11:21:06.625Z,94578.37
2018-02-02T11:23:34.233Z,94576.59
2018-02-02T11:26:04.835Z,94577.08
2018-02-02T11:28:32.255Z,94557.05
2018-02-02T11:30:59.801Z,94543.55
2018-02-02T11:33:27.160Z,94577.23
2018-02-02T11:35:54.634Z,94574.34
2018-02-02T11:38:22.083Z,94573.34
2018-02-02T11:40:49.555Z,94536.58
2018-02-02T11:43:18.049Z,94521.66
2018-02-02T11:45:45.496Z,94522.61
2018-02-02T11:48:12.932Z,94543.37
2018-02-02T11:50:40.501Z,94551.95
2018-02-02T11:53:07.920Z,94556.42
2018-02-02T11:55:35.326Z,94541.06
2018-02-02T11:58:02.850Z,94491.82
2018-02-02T12:00:30.338Z,94525.98
2018-02-02T12:02:57.768Z,94521.13
2018-02-02T12:05:25.192Z,94516.26
2018-02-02T12:07:52.675Z,94515.23
2018-02-02T12:10:20.108Z,94468.68
2018-02-02T12:12:47.621Z,94498.36
2018-02-02T12:15:15.084Z,94488.06
2018-02-02T12:17:42.567Z,94475.16
2018-02-02T12:20:10.026Z,94493.39
2018-02-02T12:22:41.480Z,94480.88
2018-02-02T12:25:08.873Z,94503.36
2018-02-02T12:27:36.348Z,94485.77
2018-02-02T12:30:03.775Z,94461.72
2018-02-02T12:32:31.215Z,94470.20
2018-02-02T12:34:58.594Z,94456.77
2018-02-02T12:37:26.037Z,94516.64
2018-02-02T12:39:53.435Z,94501.62
2018-02-02T12:42:20.833Z,94509.23
2018-02-02T12:44:48.252Z,94487.47
2018-02-02T12:47:15.836Z,94483.33
2018-02-02T12:49:43.210Z,94503.48
2018-02-02T12:52:10.651Z,94499.38
2018-02-02T12:54:38.135Z,94471.94
2018-02-02T12:57:05.570Z,94497.04
2018-02-02T12:59:32.985Z,94473.48
2018-02-02T13:02:02.049Z,94481.67
2018-02-02T13:04:29.566Z,94494.48
2018-02-02T13:06:56.966Z,94466.66
2018-02-02T13:09:24.407Z,94492.55
2018-02-02T13:11:51.915Z,94452.98
2018-02-02T13:14:19.303Z,94464.59
2018-02-02T13:16:46.693Z,94465.43
2018-02-02T13:19:14.166Z,94439.70
2018-02-02T13:21:41.631Z,94463.41
2018-02-02T13:24:09.129Z,94423.55
2018-02-02T13:26:36.554Z,94378.41
2018-02-02T13:29:03.990Z,94394.20
2018-02-02T13:31:31.404Z,94406.23
2018-02-02T13:33:58.874Z,94411.14
2018-02-02T13:36:26.532Z,94406.86
2018-02-02T13:38:53.914Z,94396.66
2018-02-02T13:41:21.330Z,94420.67
2018-02-02T13:43:48.750Z,94414.22
2018-02-02T13:46:16.207Z,94411.61
2018-02-02T13:48:43.645Z,94390.84
2018-02-02T13:51:11.055Z,94409.11
2018-02-02T13:53:38.536Z,94373.27
2018-02-02T13:56:06.172Z,94386.67
2018-02-02T13:58:33.620Z,94376.95
2018-02-02T14:01:01.063Z,94399.43
2018-02-02T14:03:28.570Z,94378.22
2018-02-02T14:05:56.118Z,94430.11
2018-02-02T14:08:23.542Z,94423.03
2018-02-02T14:10:51.000Z,94447.14
2018-02-02T14:13:18.422Z,94416.94
2018-02-02T14:15:45.970Z,94433.98
2018-02-02T14:18:13.393Z,94446.13
2018-02-02T14:20:40.863Z,94446.02
2018-02-02T14:23:08.307Z,94431.97
2018-02-02T14:25:35.723Z,94459.55
2018-02-02T14:28:03.159Z,94466.80
2018-02-02T14:30:30.679Z,94476.85
2018-02-02T14:32:58.103Z,94465.72
2018-02-02T14:35:25.514Z,94473.78
2018-02-02T14:37:52.927Z,94499.48
2018-02-02T14:40:20.326Z,94476.51
2018-02-02T14:42:47.829Z,94475.60
2018-02-02T14:45:15.317Z,94466.63
2018-02-02T14:47:42.815Z,94478.78
2018-02-02T14:50:10.411Z,94474.77
2018-02-02T14:52:37.858Z,94483.83
2018-02-02T14:55:05.310Z,94474.73
2018-02-02T14:57:32.778Z,94467.22
2018-02-02T15:00:00.170Z,94476.13
2018-02-02T15:02:27.678Z,94473.83
2018-02-02T15:04:55.145Z,94468.66
2018-02-02T15:07:22.585Z,94447.41
2018-02-02T15:09:50.042Z,94479.09
2018-02-02T15:12:17.717Z,94476.22
2018-02-02T15:14:45.302Z,94484.63
2018-02-02T15:17:12.907Z,94495.54
2018-02-02T15:19:41.061Z,94491.97
2018-02-02T15:22:08.568Z,94479.23
2018-02-02T15:24:36.060Z,94477.70
2018-02-02T15:27:03.793Z,94480.02
2018-02-02T15:29:33.234Z,94479.03
2018-02-02T15:32:00.700Z,94478.31
2018-02-02T15:34:28.196Z,94471.47
2018-02-02T15:36:55.986Z,94475.06
2018-02-02T15:39:23.648Z,94499.23
2018-02-02T15:41:51.095Z,94489.32
2018-02-02T15:44:18.543Z,94506.16
2018-02-02T15:46:46.086Z,94493.58
2018-02-02T15:49:13.716Z,94500.77
2018-02-02T15:51:41.348Z,94489.48
2018-02-02T15:54:09.098Z,94458.86
2018-02-02T15:56:36.794Z,94431.52
2018-02-02T15:59:04.462Z,94484.41
2018-02-02T16:01:32.057Z,94484.57
2018-02-02T16:03:59.438Z,94464.69
2018-02-02T16:06:27.214Z,94498.43
2018-02-02T16:08:54.763Z,94473.16
2018-02-02T16:11:22.257Z,94451.61
2018-02-02T16:13:49.688Z,94457.98
2018-02-02T16:16:17.146Z,94467.86
2018-02-02T16:18:44.562Z,94481.51
2018-02-02T16:21:12.049Z,94468.25
2018-02-02T16:23:40.403Z,94506.27
2018-02-02T16:26:07.875Z,94495.81
2018-02-02T16:28:35.377Z,94502.09
2018-02-02T16:31:02.858Z,94514.23
2018-02-02T16:33:30.313Z,94505.30
2018-02-02T16:35:57.763Z,94505.98
2018-02-02T16:38:25.163Z,94481.23
2018-02-02T16:40:52.617Z,94498.08
2018-02-02T16:43:19.999Z,94489.74
2018-02-02T16:45:47.402Z,94492.67
2018-02-02T16:48:14.802Z,94500.59
2018-02-02T16:50:42.179Z,94494.86
2018-02-02T16:53:09.763Z,94500.47
2018-02-02T16:55:37.208Z,94496.95
2018-02-02T16:58:04.619Z,94496.10
2018-02-02T17:00:32.015Z,94484.19
2018-02-02T17:02:59.426Z,94490.18
2018-02-02T17:05:26.856Z,94492.58
2018-02-02T17:07:54.296Z,94488.94
2018-02-02T17:10:21.700Z,94498.17
2018-02-02T17:12:51.005Z,94471.94
2018-02-02T17:15:19.046Z,94473.59
2018-02-02T17:17:46.584Z,94484.68
2018-02-02T17:20:13.988Z,94507.72
2018-02-02T17:22:41.404Z,94509.70
2018-02-02T17:25:08.853Z,94510.89
2018-02-02T17:27:36.288Z,94528.86
2018-02-02T17:30:03.725Z,94524.17
2018-02-02T17:32:31.229Z,94514.57
2018-02-02T17:34:58.670Z,94525.02
2018-02-02T17:37:26.066Z,94521.98
2018-02-02T17:39:53.504Z,94517.57
2018-02-02T17:42:20.883Z,94524.86
2018-02-02T17:44:48.284Z,94523.77
2018-02-02T17:47:15.697Z,94530.89
2018-02-02T17:49:43.154Z,94521.52
2018-02-02T17:52:10.556Z,94539.11
2018-02-02T17:54:38.018Z,94533.48
2018-02-02T17:57:05.408Z,94544.73
2018-02-02T17:59:32.812Z,94541.65
2018-02-02T18:02:00.322Z,94544.03
2018-02-02T18:04:27.709Z,94542.44
2018-02-02T18:06:55.132Z,94543.20
2018-02-02T18:09:22.521Z,94547.00
2018-02-02T18:11:49.903Z,94520.28
2018-02-02T18:14:17.361Z,94560.22
2018-02-02T18:16:44.869Z,94532.94
2018-02-02T18:19:12.287Z,94523.83
2018-02-02T18:21:39.730Z,94535.55
2018-02-02T18:24:07.182Z,94558.81
2018-02-02T18:26:34.669Z,94549.39
2018-02-02T18:29:02.075Z,94531.87
2018-02-02T18:31:29.480Z,94522.73
2018-02-02T18:33:56.990Z,94545.58
2018-02-02T18:36:24.415Z,94580.75
2018-02-02T18:38:51.854Z,94551.43
2018-02-02T18:41:19.326Z,94538.22
2018-02-02T18:43:46.748Z,94555.86
2018-02-02T18:46:14.186Z,94562.04
2018-02-02T18:48:41.610Z,94549.09
2018-02-02T18:51:09.042Z,94539.13
2018-02-02T18:53:36.476Z,94530.61
2018-02-02T18:56:03.945Z,94564.59
2018-02-02T18:58:31.383Z,94533.63
2018-02-02T19:00:58.812Z,94511.55
2018-02-02T19:03:26.252Z,94493.69
2018-02-02T19:05:53.687Z,94507.31
2018-02-02T19:08:21.126Z,94495.05
2018-02-02T19:10:48.578Z,94483.45
2018-02-02T19:13:15.985Z,94490.06
2018-02-02T19:15:43.429Z,94461.45
2018-02-02T19:18:10.849Z,94473.74
2018-02-02T19:20:38.303Z,94453.89
2018-02-02T19:23:05.707Z,94450.09
2018-02-02T19:25:33.135Z,94430.88
2018-02-02T19:28:00.525Z,94465.64
2018-02-02T19:30:27.970Z,94493.59
2018-02-02T19:32:55.384Z,94517.58
2018-02-02T19:35:23.479Z,94513.79
2018-02-02T19:37:50.897Z,94496.78
2018-02-02T19:40:18.290Z,94474.08
2018-02-02T19:42:45.756Z,94494.31
2018-02-02T19:45:13.165Z,94530.61
2018-02-02T19:47:40.917Z,94514.87
2018-02-02T19:50:08.314Z,94501.50
2018-02-02T19:52:35.758Z,94522.11
2018-02-02T19:55:03.172Z,94547.08
2018-02-02T19:57:30.646Z,94546.10
2018-02-02T19:59:58.097Z,94542.13
2018-02-02T20:02:25.550Z,94570.16
2018-02-02T20:04:53.021Z,94522.30
2018-02-02T20:07:20.430Z,94517.94
2018-02-02T20:09:47.826Z,94517.12
2018-02-02T20:12:15.282Z,94511.91
2018-02-02T20:14:42.693Z,94510.36
2018-02-02T20:17:10.157Z,94530.30
2018-02-02T20:19:37.582Z,94531.37
2018-02-02T20:22:05.033Z,94531.53
2018-02-02T20:24:32.445Z,94525.33
2018-02-02T20:26:59.897Z,94528.98
2018-02-02T20:29:27.474Z,94541.67
2018-02-02T20:31:54.885Z,94544.41
2018-02-02T20:34:22.273Z,94538.19
2018-02-02T20:36:49.671Z,94564.81
2018-02-02T20:39:17.078Z,94554.45
2018-02-02T20:41:44.493Z,94551.30
2018-02-02T20:44:11.958Z,94534.41
2018-02-02T20:46:39.410Z,94511.31
2018-02-02T20:49:06.822Z,94518.91
2018-02-02T20:51:34.215Z,94517.61
2018-02-02T20:54:01.685Z,94502.84
2018-02-02T20:56:29.094Z,94501.94
2018-02-02T20:58:56.514Z,94506.70
2018-02-02T21:01:23.984Z,94482.72
2018-02-02T21:03:51.930Z,94465.95
2018-02-02T21:08:52.813Z,94492.45
2018-02-02T21:11:20.313Z,94454.95
2018-02-02T21:13:47.828Z,94443.36
2018-02-02T21:16:15.277Z,94466.48
2018-02-02T21:18:42.728Z,94445.19
2018-02-02T21:21:10.166Z,94453.31
2018-02-02T21:23:37.579Z,94447.59
2018-02-02T21:26:04.985Z,94476.27
2018-02-02T21:28:32.425Z,94453.42
2018-02-02T21:30:59.889Z,94439.66
2018-02-02T21:33:27.307Z,94432.45
2018-02-02T21:35:54.721Z,94474.63
2018-02-02T21:38:22.182Z,94468.50
2018-02-02T21:40:49.623Z,94505.09
2018-02-02T21:43:17.037Z,94496.44
2018-02-02T21:45:44.437Z,94498.93
2018-02-02T21:48:11.866Z,94516.14
2018-02-02T21:50:39.253Z,94525.27
2018-02-02T21:53:06.671Z,94483.95
2018-02-02T21:55:34.049Z,94496.36
2018-02-02T21:58:01.465Z,94500.41
2018-02-02T22:00:28.880Z,94507.76
2018-02-02T22:02:56.274Z,94494.77
2018-02-02T22:05:23.705Z,94496.36
2018-02-02T22:07:51.135Z,94507.16
2018-02-02T22:10:18.545Z,94496.27
2018-02-02T22:12:45.926Z,94495.94
2018-02-02T22:15:13.364Z,94500.84
2018-02-02T22:17:40.714Z,94475.86
2018-02-02T22:20:08.046Z,94470.42
2018-02-02T22:22:35.440Z,94504.27
2018-02-02T22:25:02.818Z,94490.69
2018-02-02T22:27:30.206Z,94498.43
2018-02-02T22:29:57.558Z,94485.69
2018-02-02T22:32:24.936Z,94487.53
2018-02-02T22:34:52.286Z,94490.61
2018-02-02T22:37:19.665Z,94508.39
2018-02-02T22:39:47.083Z,94481.88
2018-02-02T22:42:14.422Z,94440.72
2018-02-02T22:44:41.758Z,94457.91
2018-02-02T22:47:09.158Z,94451.81
2018-02-02T22:49:36.537Z,94450.65
2018-02-02T22:52:03.942Z,94443.54
2018-02-02T22:54:31.296Z,94423.88
2018-02-02T22:56:58.677Z,94453.55
2018-02-02T22:59:26.015Z,94446.84
2018-02-02T23:01:53.457Z,94442.84
2018-02-02T23:04:20.842Z,94442.30
2018-02-02T23:06:48.263Z,94446.30
2018-02-02T23:09:15.658Z,94444.03
2018-02-02T23:11:42.998Z,94423.58
2018-02-02T23:14:10.371Z,94415.09
2018-02-02T23:16:37.732Z,94415.09
2018-02-02T23:19:05.156Z,94412.48
2018-02-02T23:21:32.519Z,94405.63
2018-02-02T23:23:59.875Z,94414.58
2018-02-02T23:26:27.266Z,94399.62
2018-02-02T23:28:54.602Z,94413.03
2018-02-02T23:31:21.959Z,94425.97
2018-02-02T23:33:49.345Z,94409.90
2018-02-02T23:36:16.706Z,94393.23
2018-02-02T23:38:44.054Z,94402.86
2018-02-02T23:41:11.511Z,94415.61
2018-02-02T23:43:38.875Z,94403.65
2018-02-02T23:46:06.245Z,94389.90
2018-02-02T23:48:33.646Z,94402.95
2018-02-02T23:51:01.009Z,94401.09
2018-02-02T23:53:28.414Z,94391.97
2018-02-02T23:55:55.818Z,94378.94
2018-02-02T23:58:23.194Z,94379.88
